< < Back
Terminal Aerodrome Forecast


Current Version              Previous Versions:   1  2  3  4  5  6  7  8  9  

Terminal Aerodrome Forecast

560
FTUS44 KBMX 251131
TAFMGM
TAF
KMGM 251131Z 2512/2612 25005KT P6SM FEW060
     FM260000 23002KT P6SM SCT250=

Latest METAR

933
SAUS80 KWBC 251700 RRA
MTRMGM
METAR KMGM 251653Z 00000KT 10SM FEW048 35/21 A3010 RMK AO2 SLP187
T03500211


USA.gov is the U.S. government's official web portal to all federal, state and local government web resources and services.